Time;durP1;ratioP1;P1;durP2;ratioP2;P2;SDS_P1;SDS_P2;PMS_P1;PMS_P2;Temp;Humidity;BMP_temperature;BMP_pressure;BME280_temperature;BME280_humidity;BME280_pressure;Samples;Min_cycle;Max_cycle;Signal;HPM_P1;HPM_P2
2021/11/10 00:01:20;;;;;;;6.50;3.80;;;;;;;12.24;42.93;102169.13;4993017;28;20045;-68
2021/11/10 00:03:46;;;;;;;6.78;4.10;;;;;;;12.25;42.69;102162.72;5009089;28;20050;-68
2021/11/10 00:06:13;;;;;;;6.43;3.97;;;;;;;12.25;43.05;102165.44;5010425;28;20049;-68
2021/11/10 00:08:40;;;;;;;7.05;4.10;;;;;;;12.25;42.81;102151.84;5008653;28;20050;-67
2021/11/10 00:11:06;;;;;;;5.65;3.63;;;;;;;12.25;43.08;102141.81;5009549;28;20100;-67
2021/11/10 00:13:33;;;;;;;7.15;3.95;;;;;;;12.25;42.80;102135.50;5009435;28;20131;-69
2021/11/10 00:15:59;;;;;;;7.45;4.07;;;;;;;12.23;42.52;102135.56;5009071;28;20121;-69
2021/11/10 00:18:26;;;;;;;5.00;3.60;;;;;;;12.23;43.07;102153.75;5008907;28;20050;-68
2021/11/10 00:20:53;;;;;;;6.82;3.70;;;;;;;12.21;43.13;102145.66;4990610;28;20136;-69
2021/11/10 00:23:19;;;;;;;6.70;4.20;;;;;;;12.19;42.81;102131.25;5007902;28;20050;-69
2021/11/10 00:25:46;;;;;;;6.57;3.97;;;;;;;12.18;42.88;102144.00;5010305;28;20133;-67
2021/11/10 00:28:13;;;;;;;7.35;3.83;;;;;;;12.17;42.76;102146.81;5009056;28;20503;-68
2021/11/10 00:30:39;;;;;;;8.05;3.90;;;;;;;12.16;42.78;102139.59;5008920;28;20077;-68
2021/11/10 00:33:06;;;;;;;6.28;3.83;;;;;;;12.15;42.89;102146.00;5008303;28;20655;-68
2021/11/10 00:35:32;;;;;;;6.53;3.88;;;;;;;12.14;42.90;102153.28;5008881;28;20082;-67
2021/11/10 00:37:59;;;;;;;9.15;4.53;;;;;;;12.14;42.85;102150.56;5009467;28;20085;-68
2021/11/10 00:40:26;;;;;;;7.90;4.00;;;;;;;12.15;42.83;102148.72;5007125;28;20442;-68
2021/11/10 00:42:53;;;;;;;6.88;3.97;;;;;;;12.14;43.07;102157.84;5008967;28;20519;-66
2021/11/10 00:45:24;;;;;;;7.47;3.95;;;;;;;12.14;42.97;102164.16;5008414;28;20049;-65
2021/11/10 00:47:51;;;;;;;7.47;3.80;;;;;;;12.15;43.00;102149.59;5009744;28;20081;-67
2021/11/10 00:50:18;;;;;;;7.13;3.85;;;;;;;12.16;42.86;102145.03;5007152;28;20112;-68
2021/11/10 00:52:44;;;;;;;8.02;3.65;;;;;;;12.16;42.76;102153.19;5007427;28;20140;-67
2021/11/10 00:55:11;;;;;;;6.60;4.10;;;;;;;12.15;42.81;102138.72;5007943;28;20137;-68
2021/11/10 00:57:37;;;;;;;7.45;4.10;;;;;;;12.15;42.96;102138.72;5008601;28;20137;-67
2021/11/10 01:00:06;;;;;;;6.63;3.90;;;;;;;12.15;42.95;102144.16;5007624;28;20054;-67
2021/11/10 01:02:33;;;;;;;5.63;3.58;;;;;;;12.14;43.03;102142.38;5009534;28;20093;-68
2021/11/10 01:04:59;;;;;;;7.03;3.92;;;;;;;12.13;42.94;102140.63;5006884;28;20057;-67
2021/11/10 01:07:26;;;;;;;7.63;4.10;;;;;;;12.13;42.88;102146.06;4991155;28;20141;-68
2021/11/10 01:10:01;;;;;;;7.45;3.83;;;;;;;12.12;42.99;102136.13;5008343;28;20141;-68
2021/11/10 01:12:28;;;;;;;5.90;3.88;;;;;;;12.12;43.10;102129.81;5009597;28;20538;-68
2021/11/10 01:14:55;;;;;;;7.35;4.45;;;;;;;12.12;42.80;102132.53;5008307;28;20052;-67
2021/11/10 01:17:22;;;;;;;7.53;3.83;;;;;;;12.10;42.93;102118.16;5009379;28;20133;-68
2021/11/10 01:19:49;;;;;;;5.43;3.58;;;;;;;12.09;42.69;102140.88;5007619;28;20144;-68
2021/11/10 01:22:17;;;;;;;5.20;3.75;;;;;;;12.09;42.75;102127.28;5009024;28;20104;-65
2021/11/10 01:24:45;;;;;;;8.32;4.10;;;;;;;12.08;42.73;102117.34;5007924;28;20194;-65
2021/11/10 01:27:12;;;;;;;6.75;4.15;;;;;;;12.05;42.79;102120.22;5009251;28;20551;-67
2021/11/10 01:29:38;;;;;;;6.95;3.75;;;;;;;12.04;42.89;102111.16;4990917;28;20057;-68
2021/11/10 01:32:06;;;;;;;7.72;4.13;;;;;;;12.02;42.71;102114.94;5008319;28;20050;-65
2021/11/10 01:34:33;;;;;;;6.00;3.75;;;;;;;11.99;42.50;102113.25;4990636;28;20077;-68
2021/11/10 01:36:59;;;;;;;5.60;3.50;;;;;;;11.97;42.97;102111.56;4991426;28;20050;-68
2021/11/10 01:39:26;;;;;;;7.20;4.07;;;;;;;11.95;42.80;102105.31;4990195;28;20626;-68
2021/11/10 01:42:01;;;;;;;6.45;3.55;;;;;;;11.94;42.77;102103.59;5008405;28;20057;-68
2021/11/10 01:44:29;;;;;;;5.25;3.50;;;;;;;11.90;42.92;102105.56;5007602;28;20053;-67
2021/11/10 01:46:58;;;;;;;6.38;3.50;;;;;;;11.90;42.80;102101.97;5008805;28;20546;-65
2021/11/10 01:49:26;;;;;;;6.05;4.00;;;;;;;11.88;43.01;102112.94;4989796;28;20496;-66
2021/11/10 01:51:55;;;;;;;6.80;3.97;;;;;;;11.87;42.92;102110.28;4991655;28;20754;-69
2021/11/10 01:54:24;;;;;;;6.40;3.42;;;;;;;11.86;42.99;102097.66;5007740;28;20132;-65
2021/11/10 01:56:52;;;;;;;5.90;3.60;;;;;;;11.85;42.90;102087.75;5009094;28;20555;-68
2021/11/10 01:59:42;;;;;;;7.03;3.70;;;;;;;11.85;42.95;102085.91;5007544;28;20085;-68
2021/11/10 02:02:22;;;;;;;5.60;3.50;;;;;;;11.80;43.06;102069.78;5008890;28;20073;-67
2021/11/10 02:04:50;;;;;;;5.68;3.53;;;;;;;11.78;43.00;102074.44;5007524;28;20054;-68
2021/11/10 02:07:19;;;;;;;7.50;3.75;;;;;;;11.78;42.99;102079.88;4991653;28;20511;-68
2021/11/10 02:09:48;;;;;;;6.30;4.05;;;;;;;11.78;43.23;102089.88;5006484;28;20470;-67
2021/11/10 02:12:16;;;;;;;6.30;3.83;;;;;;;11.77;43.15;102088.13;5007176;28;20415;-66
2021/11/10 02:14:44;;;;;;;6.97;3.90;;;;;;;11.77;43.04;102088.13;5007596;28;20088;-68
2021/11/10 02:17:17;;;;;;;6.25;4.03;;;;;;;11.78;43.12;102090.75;5008675;28;20482;-66
2021/11/10 02:19:44;;;;;;;;;;;;;;;11.52;43.65;102082.16;5009834;28;20153;-67
2021/11/10 02:22:14;;;;;;;6.47;3.65;;;;;;;11.71;43.18;102078.41;5012436;28;19929;-67
2021/11/10 02:24:42;;;;;;;6.80;4.15;;;;;;;11.72;42.96;102074.72;5011590;28;20081;-68
2021/11/10 02:27:16;;;;;;;6.93;3.88;;;;;;;11.72;42.89;102077.44;5011073;28;20050;-67
2021/11/10 02:29:43;;;;;;;7.50;3.92;;;;;;;11.71;43.16;102089.28;5010432;28;20062;-67
2021/11/10 02:32:12;;;;;;;6.07;4.15;;;;;;;11.72;43.10;102082.88;5010050;28;20141;-67
2021/11/10 02:34:41;;;;;;;6.72;3.92;;;;;;;11.71;42.87;102070.25;5009392;28;20054;-68
2021/11/10 02:37:09;;;;;;;10.32;4.32;;;;;;;11.70;42.95;102070.31;4994592;28;20136;-65
2021/11/10 02:39:38;;;;;;;6.88;4.35;;;;;;;11.66;42.97;102068.72;4993645;28;20145;-65
2021/11/10 02:42:07;;;;;;;6.72;4.03;;;;;;;11.64;42.93;102074.25;5012247;28;20046;-68
2021/11/10 02:44:34;;;;;;;6.40;4.07;;;;;;;11.61;42.88;102070.81;5011207;28;20069;-67
2021/11/10 02:47:04;;;;;;;6.80;3.70;;;;;;;11.60;43.18;102077.22;5011464;28;20050;-69
2021/11/10 02:49:32;;;;;;;5.80;3.83;;;;;;;11.58;43.14;102079.13;5010212;28;20480;-68
2021/11/10 02:52:01;;;;;;;6.47;3.85;;;;;;;11.56;43.31;102076.47;5011321;28;20054;-68
2021/11/10 02:54:30;;;;;;;6.15;4.10;;;;;;;11.57;43.02;102075.53;5010740;28;20073;-65
2021/11/10 02:57:00;;;;;;;5.82;4.05;;;;;;;11.56;43.33;102073.75;5011809;28;20436;-68
2021/11/10 02:59:27;;;;;;;7.47;3.97;;;;;;;11.54;43.12;102088.38;5009115;28;20454;-66
2021/11/10 03:01:55;;;;;;;6.22;3.95;;;;;;;11.55;43.00;102087.44;5010986;28;20590;-69
2021/11/10 03:04:22;;;;;;;8.23;4.40;;;;;;;11.56;42.92;102091.91;5010584;28;20496;-67
2021/11/10 03:06:50;;;;;;;6.25;3.80;;;;;;;11.54;43.36;102082.94;5011800;28;20054;-68
2021/11/10 03:09:18;;;;;;;6.75;4.03;;;;;;;11.54;43.05;102091.09;4993200;28;20050;-66
2021/11/10 03:11:45;;;;;;;7.95;3.97;;;;;;;11.52;43.02;102095.78;5010117;28;20550;-66
2021/11/10 03:14:12;;;;;;;7.70;4.20;;;;;;;11.51;43.10;102085.84;5010131;28;20054;-68
2021/11/10 03:16:39;;;;;;;6.57;4.10;;;;;;;11.50;43.35;102086.81;5011583;28;20064;-67
2021/11/10 03:19:06;;;;;;;7.13;3.92;;;;;;;11.49;43.19;102090.47;5010502;28;20500;-68
2021/11/10 03:21:33;;;;;;;6.97;4.32;;;;;;;11.48;43.23;102097.75;5011335;28;20046;-68
2021/11/10 03:23:59;;;;;;;6.13;4.15;;;;;;;11.48;43.20;102096.88;5010158;28;20093;-68
2021/11/10 03:26:26;;;;;;;6.70;3.80;;;;;;;11.45;42.98;102082.47;5010927;28;20092;-68
2021/11/10 03:28:52;;;;;;;8.65;4.10;;;;;;;11.45;43.32;102089.75;5010154;28;20132;-68
2021/11/10 03:31:19;;;;;;;6.63;3.90;;;;;;;11.45;43.11;102084.31;5008948;28;20137;-68
2021/11/10 03:33:45;;;;;;;6.15;4.03;;;;;;;11.43;43.13;102078.09;5009617;28;20046;-67
2021/11/10 03:36:14;;;;;;;6.72;4.13;;;;;;;11.43;43.25;102086.25;5011277;28;20056;-67
2021/11/10 03:38:42;;;;;;;5.97;3.80;;;;;;;11.43;43.48;102091.69;5010170;28;20133;-68
2021/11/10 03:41:08;;;;;;;7.07;3.90;;;;;;;11.41;43.40;102097.19;5010532;28;20137;-67
2021/11/10 03:43:36;;;;;;;7.82;4.18;;;;;;;11.42;43.34;102089.91;5009821;28;20056;-69
2021/11/10 03:46:02;;;;;;;6.25;3.78;;;;;;;11.41;43.36;102088.16;5010702;28;20073;-69
2021/11/10 03:48:30;;;;;;;6.43;3.80;;;;;;;11.41;43.42;102093.59;5009982;28;20452;-68
2021/11/10 03:50:57;;;;;;;7.43;3.72;;;;;;;11.38;43.42;102100.06;5010404;28;20046;-67
2021/11/10 03:53:24;;;;;;;6.45;3.65;;;;;;;11.38;43.23;102110.94;5010119;28;20474;-69
2021/11/10 03:55:50;;;;;;;6.40;3.70;;;;;;;11.38;43.43;102107.31;5010892;28;20050;-66
2021/11/10 03:58:17;;;;;;;7.38;3.72;;;;;;;11.37;43.30;102089.25;5009892;28;20467;-67
2021/11/10 04:00:44;;;;;;;7.97;4.20;;;;;;;11.36;43.26;102090.22;4992123;28;20060;-68
2021/11/10 04:03:11;;;;;;;8.38;3.70;;;;;;;11.35;43.25;102097.50;5010177;28;20050;-68
2021/11/10 04:05:38;;;;;;;6.18;3.85;;;;;;;11.34;43.41;102095.75;5009541;28;20164;-69
2021/11/10 04:08:05;;;;;;;6.70;3.80;;;;;;;11.34;43.35;102089.41;5010255;28;20046;-66
2021/11/10 04:10:32;;;;;;;6.55;3.75;;;;;;;11.32;43.20;102085.88;5009376;28;20065;-67
2021/11/10 04:12:58;;;;;;;6.97;3.90;;;;;;;11.30;43.36;102096.84;5010513;28;20046;-66
2021/11/10 04:15:26;;;;;;;6.60;3.90;;;;;;;11.29;43.17;102088.75;5008754;28;20056;-67
2021/11/10 04:17:52;;;;;;;7.63;3.63;;;;;;;11.27;43.21;102083.41;5010528;28;20050;-69
2021/11/10 04:20:19;;;;;;;7.47;4.38;;;;;;;11.25;43.18;102093.47;5006609;28;20054;-68
2021/11/10 04:22:46;;;;;;;7.53;3.88;;;;;;;11.24;43.38;102088.13;5009936;28;20128;-68
2021/11/10 04:25:12;;;;;;;6.13;3.65;;;;;;;11.21;43.39;102074.66;5009177;28;20045;-66
2021/11/10 04:27:39;;;;;;;7.07;4.10;;;;;;;11.20;43.39;102081.94;5010230;28;20446;-68
2021/11/10 04:30:07;;;;;;;5.38;3.45;;;;;;;11.19;43.34;102087.47;5007719;28;20074;-67
2021/11/10 04:32:34;;;;;;;5.85;3.20;;;;;;;11.16;43.41;102088.50;4991082;28;20129;-65
2021/11/10 04:35:00;;;;;;;7.28;3.45;;;;;;;11.16;43.23;102095.78;5008939;28;20128;-67
2021/11/10 04:37:27;;;;;;;6.53;3.80;;;;;;;11.16;43.50;102098.50;4992390;28;20128;-68
2021/11/10 04:39:53;;;;;;;6.72;3.55;;;;;;;11.15;43.52;102102.16;5007426;28;20129;-68
2021/11/10 04:42:21;;;;;;;6.55;3.50;;;;;;;11.14;43.39;102109.44;5006776;28;20060;-66
2021/11/10 04:44:52;;;;;;;5.85;3.80;;;;;;;11.14;43.48;102092.25;5008573;28;20088;-67
2021/11/10 04:47:18;;;;;;;7.00;4.03;;;;;;;11.13;43.37;102080.47;5009801;28;20056;-65
2021/11/10 04:52:19;;;;;;;7.85;4.60;;;;;;;11.09;43.55;102067.13;5005678;28;20057;-70
2021/11/10 04:54:46;;;;;;;6.55;3.83;;;;;;;11.10;43.55;102075.22;4986111;28;20058;-68
2021/11/10 04:57:12;;;;;;;6.78;4.10;;;;;;;11.08;43.62;102071.69;4992485;28;20077;-68
2021/11/10 04:59:39;;;;;;;7.55;4.28;;;;;;;11.05;43.24;102067.28;5007994;28;20049;-68
2021/11/10 05:04:37;;;;;;;6.90;3.78;;;;;;;11.01;43.46;102084.72;5003819;28;20100;-67
2021/11/10 05:07:04;;;;;;;6.55;4.13;;;;;;;10.98;43.45;102073.97;5009963;28;20133;-67
2021/11/10 05:09:31;;;;;;;6.85;4.10;;;;;;;10.96;43.70;102058.69;5008062;28;20495;-69
2021/11/10 05:11:58;;;;;;;7.45;4.07;;;;;;;10.94;43.42;102055.19;5007560;28;20049;-70
2021/11/10 05:14:25;;;;;;;7.65;3.97;;;;;;;10.93;43.68;102050.72;5006441;28;20577;-70
2021/11/10 05:16:51;;;;;;;6.47;3.97;;;;;;;10.91;43.45;102045.34;5008336;28;20073;-70
2021/11/10 05:19:18;;;;;;;6.97;3.97;;;;;;;10.90;43.72;102049.00;5007837;28;20505;-70
2021/11/10 05:21:46;;;;;;;7.72;4.07;;;;;;;10.90;43.90;102051.72;5008095;28;20468;-69
2021/11/10 05:24:13;;;;;;;6.78;4.20;;;;;;;10.89;43.62;102041.81;4989407;28;20100;-70
2021/11/10 05:26:40;;;;;;;7.55;4.38;;;;;;;10.90;43.65;102051.72;5008011;28;20140;-70
2021/11/10 05:29:07;;;;;;;8.50;4.70;;;;;;;10.90;43.68;102064.44;4985549;28;20085;-71
2021/11/10 05:31:35;;;;;;;7.07;3.97;;;;;;;10.89;43.61;102069.00;5008963;28;20081;-69
2021/11/10 05:34:03;;;;;;;7.57;4.20;;;;;;;10.88;43.69;102067.22;5005356;28;20065;-70
2021/11/10 05:36:30;;;;;;;7.93;4.40;;;;;;;10.88;43.63;102072.66;5009698;28;20458;-70
2021/11/10 05:38:57;;;;;;;7.85;4.28;;;;;;;10.89;43.73;102076.25;5006904;28;20144;-70
2021/11/10 05:41:24;;;;;;;9.00;4.75;;;;;;;10.89;44.09;102081.69;5008956;28;20141;-70
2021/11/10 05:43:50;;;;;;;7.38;4.13;;;;;;;10.88;43.35;102079.94;5007867;28;20455;-70
2021/11/10 05:46:17;;;;;;;6.55;4.53;;;;;;;10.89;43.77;102070.81;5010381;28;20048;-70
2021/11/10 05:48:43;;;;;;;7.47;4.22;;;;;;;10.88;43.56;102066.34;5007198;28;20057;-69
2021/11/10 05:51:10;;;;;;;6.65;4.28;;;;;;;10.87;43.76;102076.31;5009313;28;20077;-70
2021/11/10 05:53:43;;;;;;;7.90;4.22;;;;;;;10.87;43.59;102080.91;5011510;28;20073;-70
2021/11/10 05:56:17;;;;;;;7.00;4.18;;;;;;;10.84;43.64;102068.34;5015390;28;20132;-69
2021/11/10 05:58:44;;;;;;;7.80;4.68;;;;;;;10.84;43.55;102051.16;5019836;28;20604;-70
2021/11/10 06:01:11;;;;;;;7.32;4.55;;;;;;;10.84;43.68;102049.31;5015324;28;20077;-70
2021/11/10 06:03:37;;;;;;;10.77;5.03;;;;;;;10.83;43.59;102062.97;5015352;28;20056;-70
2021/11/10 06:06:04;;;;;;;7.07;4.30;;;;;;;10.83;43.59;102058.44;5016257;28;20080;-70
2021/11/10 06:08:36;;;;;;;7.22;4.55;;;;;;;10.82;43.65;102047.63;5010290;28;20144;-70
2021/11/10 06:11:06;;;;;;;7.60;4.40;;;;;;;10.81;43.83;102051.28;5015175;28;20575;-70
2021/11/10 06:13:34;;;;;;;6.68;4.03;;;;;;;10.80;43.79;102069.44;4997377;28;20578;-70
2021/11/10 06:16:00;;;;;;;8.10;4.63;;;;;;;10.80;43.65;102057.69;5017910;28;20096;-70
2021/11/10 06:18:29;;;;;;;7.55;4.50;;;;;;;10.79;43.45;102054.09;5014144;28;20069;-70
2021/11/10 06:20:57;;;;;;;7.07;4.28;;;;;;;10.78;43.63;102056.91;5014767;28;20557;-70
2021/11/10 06:23:24;;;;;;;7.25;4.18;;;;;;;10.77;43.60;102060.56;5011445;28;20516;-70
2021/11/10 06:25:50;;;;;;;8.13;4.53;;;;;;;10.76;43.59;102070.56;5026580;28;20129;-69
2021/11/10 06:28:18;;;;;;;6.38;4.20;;;;;;;10.74;43.80;102063.41;5019069;28;20050;-70
2021/11/10 06:30:45;;;;;;;6.40;3.72;;;;;;;10.73;43.72;102053.50;5004104;28;20080;-71
2021/11/10 06:33:12;;;;;;;7.53;4.35;;;;;;;10.71;43.85;102055.44;5019352;28;20088;-69
2021/11/10 06:35:38;;;;;;;7.72;4.50;;;;;;;10.70;43.57;102046.41;4988191;28;20096;-69
2021/11/10 06:38:05;;;;;;;8.13;3.92;;;;;;;10.69;43.67;102047.38;5015138;28;20128;-70
2021/11/10 06:40:32;;;;;;;6.65;3.80;;;;;;;10.69;43.73;102066.38;4990956;28;20053;-69
2021/11/10 06:42:58;;;;;;;7.95;4.18;;;;;;;10.68;43.72;102067.31;5008795;28;20767;-70
2021/11/10 06:45:26;;;;;;;6.60;4.22;;;;;;;10.67;43.73;102071.00;5017961;28;20046;-69
2021/11/10 06:47:53;;;;;;;8.00;4.10;;;;;;;10.66;43.81;102063.78;5016483;28;20049;-69
2021/11/10 06:50:19;;;;;;;8.38;4.38;;;;;;;10.66;43.76;102061.06;4997267;28;20135;-69
2021/11/10 06:52:46;;;;;;;6.93;4.38;;;;;;;10.64;43.63;102061.16;5015967;28;20049;-70
2021/11/10 06:55:13;;;;;;;7.63;4.63;;;;;;;10.64;43.64;102058.44;5014336;28;20050;-70
2021/11/10 06:57:40;;;;;;;7.60;4.53;;;;;;;10.62;43.64;102057.59;5025554;28;20100;-70
2021/11/10 07:00:10;;;;;;;8.35;4.65;;;;;;;10.63;43.65;102050.34;5017462;28;20061;-70
2021/11/10 07:02:38;;;;;;;6.95;4.28;;;;;;;10.60;43.71;102048.69;5017396;28;20050;-68
2021/11/10 07:05:05;;;;;;;7.00;4.03;;;;;;;10.58;43.77;102050.59;5013228;28;20056;-70
2021/11/10 07:07:32;;;;;;;8.30;4.47;;;;;;;10.58;43.88;102052.41;4996484;28;20451;-68
2021/11/10 07:10:00;;;;;;;6.88;3.95;;;;;;;10.57;43.77;102054.25;5010101;28;20129;-70
2021/11/10 07:12:27;;;;;;;7.60;4.70;;;;;;;10.56;43.57;102062.47;4993205;28;20386;-70
2021/11/10 07:14:54;;;;;;;7.80;4.38;;;;;;;10.54;43.94;102067.97;5009249;28;20550;-70
2021/11/10 07:17:22;;;;;;;8.00;4.32;;;;;;;10.54;43.71;102077.97;5011058;28;20050;-70
2021/11/10 07:19:51;;;;;;;6.53;4.40;;;;;;;10.54;44.00;102077.97;5009237;28;20060;-70
2021/11/10 07:22:18;;;;;;;6.18;4.10;;;;;;;10.53;43.86;102078.91;5008535;28;20054;-68
2021/11/10 07:24:45;;;;;;;7.38;4.35;;;;;;;10.52;43.96;102080.75;5009701;28;20046;-68
2021/11/10 07:27:12;;;;;;;6.18;3.88;;;;;;;10.52;43.93;102082.59;5010932;28;20417;-69
2021/11/10 07:29:39;;;;;;;7.93;4.28;;;;;;;10.51;43.92;102098.00;5009801;28;20056;-69
2021/11/10 07:32:07;;;;;;;6.95;4.10;;;;;;;10.50;43.85;102104.38;5011245;28;20053;-69
2021/11/10 07:34:35;;;;;;;7.70;4.40;;;;;;;10.51;43.92;102105.25;5010546;28;20512;-69
2021/11/10 07:37:03;;;;;;;8.98;4.85;;;;;;;10.53;44.13;102114.22;4969918;28;20065;-68
2021/11/10 07:39:31;;;;;;;7.72;4.28;;;;;;;10.51;43.87;102105.25;5002965;28;20057;-68
2021/11/10 07:42:00;;;;;;;7.38;4.28;;;;;;;10.51;44.15;102103.44;5009923;28;20675;-69
2021/11/10 07:44:28;;;;;;;7.57;3.85;;;;;;;10.52;44.18;102110.63;4988675;28;20065;-69
2021/11/10 07:47:07;;;;;;;8.18;4.05;;;;;;;10.56;44.01;102116.78;5003286;28;20046;-68
2021/11/10 07:49:34;;;;;;;7.07;4.50;;;;;;;10.54;44.28;102118.69;5008205;28;20491;-69
2021/11/10 07:52:02;;;;;;;6.40;4.10;;;;;;;10.55;44.37;102128.59;5009966;28;20115;-69
2021/11/10 07:54:29;;;;;;;7.97;4.20;;;;;;;10.56;44.27;102135.78;5009547;28;20050;-69
2021/11/10 07:56:55;;;;;;;6.70;4.03;;;;;;;10.57;44.11;102140.25;4993422;28;20037;-69
2021/11/10 07:59:22;;;;;;;6.80;3.40;;;;;;;10.58;44.23;102136.59;5008149;28;20057;-69
2021/11/10 08:01:48;;;;;;;8.43;4.38;;;;;;;10.59;44.06;102132.94;5010822;28;20054;-69
2021/11/10 08:04:15;;;;;;;6.13;4.13;;;;;;;10.61;44.36;102137.34;5009035;28;20049;-69
2021/11/10 08:06:42;;;;;;;8.73;4.70;;;;;;;10.63;44.41;102145.41;5010796;28;20092;-69
2021/11/10 08:09:08;;;;;;;7.40;4.22;;;;;;;10.64;44.60;102142.63;5009120;28;20572;-69
2021/11/10 08:11:36;;;;;;;6.57;4.15;;;;;;;10.66;44.42;102142.56;5010953;28;20507;-69
2021/11/10 08:14:02;;;;;;;6.18;3.83;;;;;;;10.68;44.51;102144.25;5010655;28;20105;-69
2021/11/10 08:16:29;;;;;;;7.25;4.15;;;;;;;10.70;44.64;102143.31;4990788;28;20042;-69
2021/11/10 08:18:56;;;;;;;7.03;4.63;;;;;;;10.73;44.56;102137.72;5009000;28;20054;-69
2021/11/10 08:21:26;;;;;;;6.85;4.15;;;;;;;10.73;44.77;102130.44;5008937;28;20561;-69
2021/11/10 08:23:53;;;;;;;7.80;4.45;;;;;;;10.78;44.79;102130.25;5005749;28;20136;-69
2021/11/10 08:26:21;;;;;;;5.90;3.92;;;;;;;10.79;44.69;102123.88;4992129;28;20473;-69
2021/11/10 08:28:48;;;;;;;6.60;3.80;;;;;;;10.81;44.91;102133.69;5008219;28;20923;-69
2021/11/10 08:31:15;;;;;;;6.45;3.50;;;;;;;10.84;44.85;102136.25;5009868;28;20500;-70
2021/11/10 08:33:43;;;;;;;6.90;4.20;;;;;;;10.87;44.93;102130.66;4993116;28;20101;-70
2021/11/10 08:36:10;;;;;;;7.18;4.20;;;;;;;10.90;44.83;102130.53;4986410;28;20332;-71
2021/11/10 08:38:38;;;;;;;7.32;4.00;;;;;;;10.93;45.02;102133.13;5008342;28;20052;-70
2021/11/10 08:41:05;;;;;;;6.80;4.28;;;;;;;10.97;45.12;102128.38;5006465;28;20329;-70
2021/11/10 08:43:34;;;;;;;8.27;3.83;;;;;;;10.99;45.25;102134.63;5002019;28;20050;-70
2021/11/10 08:46:02;;;;;;;6.97;4.15;;;;;;;11.02;45.26;102139.94;4995231;28;20104;-71
2021/11/10 08:48:29;;;;;;;7.38;4.20;;;;;;;11.05;44.96;102142.50;5018539;28;20128;-71
2021/11/10 08:50:58;;;;;;;6.57;4.40;;;;;;;11.10;45.18;102142.28;5008484;28;20096;-70
2021/11/10 08:53:25;;;;;;;7.63;4.85;;;;;;;11.12;45.12;102143.94;4989865;28;20053;-71
2021/11/10 08:55:56;;;;;;;7.40;4.80;;;;;;;11.15;45.08;102138.38;4989165;28;20050;-71
2021/11/10 08:58:23;;;;;;;9.20;5.05;;;;;;;11.19;45.38;102144.56;5009224;28;20555;-71
2021/11/10 09:00:52;;;;;;;10.50;5.43;;;;;;;11.20;45.40;102147.19;5009149;28;20073;-71
2021/11/10 09:03:29;;;;;;;7.88;4.70;;;;;;;11.24;45.33;102145.19;4997400;28;20049;-71
2021/11/10 09:05:57;;;;;;;8.18;4.93;;;;;;;11.26;45.22;102141.47;4993523;28;20058;-71
2021/11/10 09:08:33;;;;;;;8.43;4.72;;;;;;;11.33;45.28;102152.91;5006476;28;20466;-71
2021/11/10 09:11:00;;;;;;;8.60;5.10;;;;;;;11.33;45.46;102145.63;5008922;28;20084;-71
2021/11/10 09:13:28;;;;;;;8.32;4.57;;;;;;;11.37;45.11;102136.34;4998761;28;20046;-71
2021/11/10 09:15:56;;;;;;;7.70;4.88;;;;;;;11.41;45.12;102142.53;5005948;28;20141;-71
2021/11/10 09:18:24;;;;;;;6.55;5.13;;;;;;;11.44;45.22;102136.94;5008654;28;20533;-71
2021/11/10 09:21:03;;;;;;;8.48;4.80;;;;;;;11.50;45.29;102141.19;5006112;28;20096;-71
2021/11/10 09:23:30;;;;;;;7.18;4.70;;;;;;;11.49;45.30;102143.03;4975713;28;20136;-71
2021/11/10 09:25:57;;;;;;;8.27;4.80;;;;;;;11.54;45.28;102137.34;5000912;28;20081;-71
2021/11/10 09:28:24;;;;;;;7.40;5.10;;;;;;;11.58;45.31;102125.38;4985816;28;20050;-72
2021/11/10 09:30:53;;;;;;;7.38;4.75;;;;;;;11.63;45.21;102120.56;5007203;28;20132;-72
2021/11/10 09:33:21;;;;;;;8.10;5.35;;;;;;;11.64;45.22;102117.78;4981978;28;20054;-72
2021/11/10 09:35:51;;;;;;;7.03;4.82;;;;;;;11.69;45.24;102126.59;4996983;28;20439;-71
2021/11/10 09:38:19;;;;;;;9.27;5.32;;;;;;;11.70;45.23;102130.16;4990535;28;20050;-71
2021/11/10 09:40:46;;;;;;;8.63;5.50;;;;;;;11.74;45.23;102132.69;4987424;28;20408;-71
2021/11/10 09:43:15;;;;;;;7.18;5.10;;;;;;;11.77;45.32;102120.78;5009211;28;20057;-71
2021/11/10 09:45:45;;;;;;;7.10;4.88;;;;;;;11.80;45.31;102118.78;5006825;28;20132;-71
2021/11/10 09:48:13;;;;;;;7.13;4.85;;;;;;;11.82;45.30;102108.69;5006590;28;20345;-71
2021/11/10 09:50:44;;;;;;;8.32;5.50;;;;;;;11.87;45.35;102115.72;5010852;28;20046;-72
2021/11/10 09:53:11;;;;;;;8.98;5.70;;;;;;;11.89;45.57;102108.38;4985563;28;20097;-72
2021/11/10 09:55:38;;;;;;;8.07;5.05;;;;;;;11.94;45.33;102114.47;5007740;28;20049;-71
2021/11/10 09:58:05;;;;;;;8.10;5.30;;;;;;;11.96;45.84;102112.53;5000639;28;20050;-71
2021/11/10 10:00:54;;;;;;;8.45;5.15;;;;;;;12.02;45.85;102101.34;4998011;28;20045;-71
2021/11/10 10:03:23;;;;;;;6.93;4.50;;;;;;;12.05;45.72;102103.88;5008291;28;20489;-71
2021/11/10 10:05:52;;;;;;;7.80;4.97;;;;;;;12.12;45.68;102103.47;5009120;28;20056;-71
2021/11/10 10:08:23;;;;;;;8.48;5.03;;;;;;;12.19;45.68;102104.00;5007929;28;20053;-71
2021/11/10 10:10:53;;;;;;;9.25;5.43;;;;;;;12.25;45.73;102103.72;5007944;28;20518;-71
2021/11/10 10:13:23;;;;;;;8.43;5.55;;;;;;;12.32;46.00;102105.13;5007805;28;20480;-70
2021/11/10 10:15:52;;;;;;;8.48;5.45;;;;;;;12.42;46.01;102105.50;5006576;28;20053;-71
2021/11/10 10:18:27;;;;;;;8.77;4.97;;;;;;;12.50;46.10;102101.41;5007614;28;20053;-71
2021/11/10 10:21:09;;;;;;;7.93;5.03;;;;;;;12.61;46.25;102102.63;5004856;28;20045;-72
2021/11/10 10:23:49;;;;;;;9.52;5.03;;;;;;;12.71;45.81;102103.88;5009190;28;20069;-72
2021/11/10 10:26:22;;;;;;;8.93;4.60;;;;;;;12.80;45.94;102103.38;5008309;28;20057;-72
2021/11/10 10:29:04;;;;;;;;;;;;;;;12.63;46.43;102104.31;5018310;28;20045;-71
2021/11/10 10:31:31;;;;;;;6.20;4.05;;;;;;;12.96;46.30;102101.53;5007973;28;19988;-72
2021/11/10 10:34:02;;;;;;;7.45;4.50;;;;;;;13.11;46.04;102100.66;5005061;28;20057;-72
2021/11/10 10:36:33;;;;;;;10.82;5.00;;;;;;;13.22;45.77;102108.25;4995650;28;20046;-72
2021/11/10 10:39:05;;;;;;;9.45;5.43;;;;;;;13.33;45.61;102106.69;5006083;28;20061;-72
2021/11/10 10:41:38;;;;;;;8.15;4.78;;;;;;;13.40;45.97;102095.41;5018837;28;20104;-72
2021/11/10 10:44:08;;;;;;;9.30;4.90;;;;;;;13.49;45.55;102094.88;5017717;28;20058;-72
2021/11/10 10:46:38;;;;;;;8.43;5.63;;;;;;;13.60;45.51;102089.63;5011661;28;20045;-72
2021/11/10 10:49:20;;;;;;;8.15;5.45;;;;;;;13.69;45.04;102089.97;5014200;28;20424;-71
2021/11/10 10:52:09;;;;;;;8.85;5.75;;;;;;;13.76;45.22;102101.38;5012257;28;20471;-71
2021/11/10 10:54:38;;;;;;;8.52;5.40;;;;;;;13.85;44.99;102099.94;5009682;28;20057;-73
2021/11/10 10:57:07;;;;;;;9.95;5.10;;;;;;;13.90;44.85;102106.91;5001053;28;20096;-72
2021/11/10 10:59:34;;;;;;;9.18;4.93;;;;;;;13.98;45.11;102106.44;5011494;28;20053;-72
2021/11/10 11:02:07;;;;;;;7.93;5.18;;;;;;;14.05;44.71;102105.06;5009679;28;20049;-72
2021/11/10 11:04:42;;;;;;;7.78;5.13;;;;;;;14.11;44.17;102101.97;5010153;28;20081;-72
2021/11/10 11:07:14;;;;;;;10.02;5.85;;;;;;;14.16;44.35;102102.56;5013233;28;20124;-74
2021/11/10 11:09:48;;;;;;;7.90;4.80;;;;;;;14.23;44.55;102101.22;5016265;28;20092;-91
2021/11/10 11:17:46;;;;;;;9.02;5.32;;;;;;;14.35;44.26;102115.94;5010170;28;20469;-85
2021/11/10 11:20:19;;;;;;;8.20;5.57;;;;;;;14.39;43.97;102121.16;4952754;28;20563;-87
2021/11/10 11:22:46;;;;;;;;;;;;;;;14.14;44.86;102118.16;4996630;28;20046;-88
2021/11/10 11:25:25;;;;;;;6.85;4.90;;;;;;;14.42;43.78;102122.81;4990278;28;19926;-86
2021/11/10 11:27:58;;;;;;;9.63;5.97;;;;;;;14.44;44.27;102121.75;4987509;28;20046;-88
2021/11/10 11:30:27;;;;;;;8.60;5.50;;;;;;;14.44;43.94;102115.41;4997876;28;20050;-87
2021/11/10 11:32:57;;;;;;;8.90;5.57;;;;;;;14.47;44.05;102120.69;4987814;28;20069;-89
2021/11/10 11:35:30;;;;;;;8.85;5.93;;;;;;;14.49;43.72;102124.22;4992422;28;20053;-90
2021/11/10 11:38:18;;;;;;;8.32;5.35;;;;;;;14.45;43.58;102118.03;4994461;28;20394;-88
2021/11/10 11:40:48;;;;;;;8.82;5.55;;;;;;;14.49;43.65;102117.88;4996991;28;20042;-89
2021/11/10 11:43:24;;;;;;;9.02;5.63;;;;;;;14.49;43.47;102115.13;4998642;28;20624;-88